sensor_id;sensor_type;location;lat;lon;timestamp;temperature;humidity
8103;DHT22;4094;49.948;11.574;2022-10-31T00:01:38;15.80;68.50
8103;DHT22;4094;49.948;11.574;2022-10-31T00:04:09;15.70;68.60
8103;DHT22;4094;49.948;11.574;2022-10-31T00:06:38;15.70;68.70
8103;DHT22;4094;49.948;11.574;2022-10-31T00:09:09;15.60;68.60
8103;DHT22;4094;49.948;11.574;2022-10-31T00:11:38;15.60;68.70
8103;DHT22;4094;49.948;11.574;2022-10-31T00:14:07;15.60;68.70
8103;DHT22;4094;49.948;11.574;2022-10-31T00:16:36;15.60;68.60
8103;DHT22;4094;49.948;11.574;2022-10-31T00:19:06;15.60;68.60
8103;DHT22;4094;49.948;11.574;2022-10-31T00:21:36;15.50;68.60
8103;DHT22;4094;49.948;11.574;2022-10-31T00:24:05;15.60;68.70
8103;DHT22;4094;49.948;11.574;2022-10-31T00:26:34;15.60;68.70
8103;DHT22;4094;49.948;11.574;2022-10-31T00:29:03;15.50;68.60
8103;DHT22;4094;49.948;11.574;2022-10-31T00:31:32;15.50;68.50
8103;DHT22;4094;49.948;11.574;2022-10-31T00:34:01;15.50;68.50
8103;DHT22;4094;49.948;11.574;2022-10-31T00:36:31;15.50;68.50
8103;DHT22;4094;49.948;11.574;2022-10-31T00:39:02;15.50;68.50
8103;DHT22;4094;49.948;11.574;2022-10-31T00:41:31;15.40;68.60
8103;DHT22;4094;49.948;11.574;2022-10-31T00:44:00;15.40;68.50
8103;DHT22;4094;49.948;11.574;2022-10-31T00:46:30;15.40;69.40
8103;DHT22;4094;49.948;11.574;2022-10-31T00:48:58;15.40;68.60
8103;DHT22;4094;49.948;11.574;2022-10-31T00:51:27;15.40;68.70
8103;DHT22;4094;49.948;11.574;2022-10-31T00:53:57;15.30;68.60
8103;DHT22;4094;49.948;11.574;2022-10-31T00:56:28;15.30;68.70
8103;DHT22;4094;49.948;11.574;2022-10-31T00:58:58;15.30;68.70
8103;DHT22;4094;49.948;11.574;2022-10-31T01:01:27;15.30;68.70
8103;DHT22;4094;49.948;11.574;2022-10-31T01:03:56;15.30;68.80
8103;DHT22;4094;49.948;11.574;2022-10-31T01:06:26;15.20;68.50
8103;DHT22;4094;49.948;11.574;2022-10-31T01:08:57;15.20;68.50
8103;DHT22;4094;49.948;11.574;2022-10-31T01:11:25;15.20;68.40
8103;DHT22;4094;49.948;11.574;2022-10-31T01:13:56;15.20;68.30
8103;DHT22;4094;49.948;11.574;2022-10-31T01:16:27;15.20;68.30
8103;DHT22;4094;49.948;11.574;2022-10-31T01:18:57;15.20;68.40
8103;DHT22;4094;49.948;11.574;2022-10-31T01:21:29;15.10;68.40
8103;DHT22;4094;49.948;11.574;2022-10-31T01:23:59;15.10;68.40
8103;DHT22;4094;49.948;11.574;2022-10-31T01:26:30;15.10;68.40
8103;DHT22;4094;49.948;11.574;2022-10-31T01:29:04;15.10;68.40
8103;DHT22;4094;49.948;11.574;2022-10-31T01:31:37;15.10;68.40
8103;DHT22;4094;49.948;11.574;2022-10-31T01:34:06;15.00;68.40
8103;DHT22;4094;49.948;11.574;2022-10-31T01:36:37;15.00;68.40
8103;DHT22;4094;49.948;11.574;2022-10-31T01:39:08;15.00;68.40
8103;DHT22;4094;49.948;11.574;2022-10-31T01:41:39;15.00;68.50
8103;DHT22;4094;49.948;11.574;2022-10-31T01:47:36;14.90;68.50
8103;DHT22;4094;49.948;11.574;2022-10-31T01:50:13;14.90;68.80
8103;DHT22;4094;49.948;11.574;2022-10-31T01:52:45;14.90;68.60
8103;DHT22;4094;49.948;11.574;2022-10-31T01:55:19;14.90;68.70
8103;DHT22;4094;49.948;11.574;2022-10-31T01:57:59;14.90;68.70
8103;DHT22;4094;49.948;11.574;2022-10-31T02:00:31;14.80;68.60
8103;DHT22;4094;49.948;11.574;2022-10-31T02:03:01;14.80;68.60
8103;DHT22;4094;49.948;11.574;2022-10-31T02:05:31;14.80;68.70
8103;DHT22;4094;49.948;11.574;2022-10-31T02:08:05;14.70;68.70
8103;DHT22;4094;49.948;11.574;2022-10-31T02:10:37;14.70;68.70
8103;DHT22;4094;49.948;11.574;2022-10-31T02:13:09;14.70;68.80
8103;DHT22;4094;49.948;11.574;2022-10-31T02:15:47;14.70;68.90
8103;DHT22;4094;49.948;11.574;2022-10-31T02:18:19;14.70;68.90
8103;DHT22;4094;49.948;11.574;2022-10-31T02:20:58;14.70;69.10
8103;DHT22;4094;49.948;11.574;2022-10-31T02:23:59;14.70;69.10
8103;DHT22;4094;49.948;11.574;2022-10-31T02:26:53;14.70;69.20
8103;DHT22;4094;49.948;11.574;2022-10-31T02:33:05;14.70;69.20
8103;DHT22;4094;49.948;11.574;2022-10-31T02:35:41;14.70;68.90
8103;DHT22;4094;49.948;11.574;2022-10-31T02:38:22;14.70;68.60
8103;DHT22;4094;49.948;11.574;2022-10-31T02:40:59;14.70;68.40
8103;DHT22;4094;49.948;11.574;2022-10-31T02:43:50;14.60;68.20
8103;DHT22;4094;49.948;11.574;2022-10-31T02:46:28;14.60;68.10
8103;DHT22;4094;49.948;11.574;2022-10-31T02:49:07;14.50;68.10
8103;DHT22;4094;49.948;11.574;2022-10-31T02:51:39;14.50;68.10
8103;DHT22;4094;49.948;11.574;2022-10-31T02:54:17;14.40;68.20
8103;DHT22;4094;49.948;11.574;2022-10-31T02:56:53;14.40;68.30
8103;DHT22;4094;49.948;11.574;2022-10-31T02:59:23;14.30;68.30
8103;DHT22;4094;49.948;11.574;2022-10-31T03:02:15;14.30;68.40
8103;DHT22;4094;49.948;11.574;2022-10-31T03:05:04;14.30;68.50
8103;DHT22;4094;49.948;11.574;2022-10-31T03:07:44;14.30;68.60
8103;DHT22;4094;49.948;11.574;2022-10-31T03:10:20;14.20;68.70
8103;DHT22;4094;49.948;11.574;2022-10-31T03:12:58;14.20;68.90
8103;DHT22;4094;49.948;11.574;2022-10-31T03:15:32;14.20;69.20
8103;DHT22;4094;49.948;11.574;2022-10-31T03:18:05;14.20;69.30
8103;DHT22;4094;49.948;11.574;2022-10-31T03:20:41;14.20;69.30
8103;DHT22;4094;49.948;11.574;2022-10-31T03:23:13;14.20;69.30
8103;DHT22;4094;49.948;11.574;2022-10-31T03:25:44;14.20;69.30
8103;DHT22;4094;49.948;11.574;2022-10-31T03:28:16;14.20;69.30
8103;DHT22;4094;49.948;11.574;2022-10-31T03:30:48;14.20;69.20
8103;DHT22;4094;49.948;11.574;2022-10-31T03:33:23;14.20;69.20
8103;DHT22;4094;49.948;11.574;2022-10-31T03:35:56;14.20;69.20
8103;DHT22;4094;49.948;11.574;2022-10-31T03:38:26;14.20;69.10
8103;DHT22;4094;49.948;11.574;2022-10-31T03:40:58;14.20;69.20
8103;DHT22;4094;49.948;11.574;2022-10-31T03:43:35;14.20;69.10
8103;DHT22;4094;49.948;11.574;2022-10-31T03:46:06;14.20;69.20
8103;DHT22;4094;49.948;11.574;2022-10-31T03:48:35;14.20;69.20
8103;DHT22;4094;49.948;11.574;2022-10-31T03:51:11;14.10;69.10
8103;DHT22;4094;49.948;11.574;2022-10-31T03:53:47;14.10;69.00
8103;DHT22;4094;49.948;11.574;2022-10-31T03:56:24;14.10;69.00
8103;DHT22;4094;49.948;11.574;2022-10-31T03:58:59;14.10;69.00
8103;DHT22;4094;49.948;11.574;2022-10-31T04:01:32;14.00;69.00
8103;DHT22;4094;49.948;11.574;2022-10-31T04:04:04;14.00;69.00
8103;DHT22;4094;49.948;11.574;2022-10-31T04:06:36;14.00;69.00
8103;DHT22;4094;49.948;11.574;2022-10-31T04:09:07;14.00;69.00
8103;DHT22;4094;49.948;11.574;2022-10-31T04:11:40;14.00;69.10
8103;DHT22;4094;49.948;11.574;2022-10-31T04:14:36;13.90;69.10
8103;DHT22;4094;49.948;11.574;2022-10-31T04:17:10;13.90;69.00
8103;DHT22;4094;49.948;11.574;2022-10-31T04:19:42;13.90;69.00
8103;DHT22;4094;49.948;11.574;2022-10-31T04:22:13;13.90;69.00
8103;DHT22;4094;49.948;11.574;2022-10-31T04:24:41;13.90;68.90
8103;DHT22;4094;49.948;11.574;2022-10-31T04:27:14;13.90;68.90
8103;DHT22;4094;49.948;11.574;2022-10-31T04:29:43;13.90;68.80
8103;DHT22;4094;49.948;11.574;2022-10-31T04:32:17;13.90;68.80
8103;DHT22;4094;49.948;11.574;2022-10-31T04:34:46;13.90;68.80
8103;DHT22;4094;49.948;11.574;2022-10-31T04:37:17;13.80;68.80
8103;DHT22;4094;49.948;11.574;2022-10-31T04:39:48;13.80;68.80
8103;DHT22;4094;49.948;11.574;2022-10-31T04:42:43;13.80;68.80
8103;DHT22;4094;49.948;11.574;2022-10-31T04:45:12;13.70;68.70
8103;DHT22;4094;49.948;11.574;2022-10-31T04:47:50;13.70;68.90
8103;DHT22;4094;49.948;11.574;2022-10-31T04:50:19;13.70;69.10
8103;DHT22;4094;49.948;11.574;2022-10-31T04:52:49;13.70;69.10
8103;DHT22;4094;49.948;11.574;2022-10-31T04:55:23;13.70;69.20
8103;DHT22;4094;49.948;11.574;2022-10-31T04:58:11;13.70;69.20
8103;DHT22;4094;49.948;11.574;2022-10-31T05:00:40;13.60;69.20
8103;DHT22;4094;49.948;11.574;2022-10-31T05:03:09;13.60;69.40
8103;DHT22;4094;49.948;11.574;2022-10-31T05:05:38;13.60;69.40
8103;DHT22;4094;49.948;11.574;2022-10-31T05:08:08;13.60;69.30
8103;DHT22;4094;49.948;11.574;2022-10-31T05:10:37;13.60;69.40
8103;DHT22;4094;49.948;11.574;2022-10-31T05:13:06;13.50;69.40
8103;DHT22;4094;49.948;11.574;2022-10-31T05:15:54;13.50;69.40
8103;DHT22;4094;49.948;11.574;2022-10-31T05:18:26;13.50;69.60
8103;DHT22;4094;49.948;11.574;2022-10-31T05:21:14;13.50;69.40
8103;DHT22;4094;49.948;11.574;2022-10-31T05:23:48;13.50;69.40
8103;DHT22;4094;49.948;11.574;2022-10-31T05:26:18;13.50;69.30
8103;DHT22;4094;49.948;11.574;2022-10-31T05:28:47;13.50;69.30
8103;DHT22;4094;49.948;11.574;2022-10-31T05:31:16;13.50;69.30
8103;DHT22;4094;49.948;11.574;2022-10-31T05:33:45;13.50;69.40
8103;DHT22;4094;49.948;11.574;2022-10-31T05:36:50;13.40;69.50
8103;DHT22;4094;49.948;11.574;2022-10-31T05:39:23;13.40;69.70
8103;DHT22;4094;49.948;11.574;2022-10-31T05:41:56;13.40;70.20
8103;DHT22;4094;49.948;11.574;2022-10-31T05:44:27;13.40;70.60
8103;DHT22;4094;49.948;11.574;2022-10-31T05:47:09;13.40;70.90
8103;DHT22;4094;49.948;11.574;2022-10-31T05:49:58;13.50;71.20
8103;DHT22;4094;49.948;11.574;2022-10-31T05:52:53;13.50;71.20
8103;DHT22;4094;49.948;11.574;2022-10-31T05:55:32;13.50;71.30
8103;DHT22;4094;49.948;11.574;2022-10-31T05:58:10;13.50;71.30
8103;DHT22;4094;49.948;11.574;2022-10-31T06:00:41;13.50;71.40
8103;DHT22;4094;49.948;11.574;2022-10-31T06:03:11;13.50;71.50
8103;DHT22;4094;49.948;11.574;2022-10-31T06:05:47;13.50;71.50
8103;DHT22;4094;49.948;11.574;2022-10-31T06:08:24;13.50;71.60
8103;DHT22;4094;49.948;11.574;2022-10-31T06:10:56;13.50;71.60
8103;DHT22;4094;49.948;11.574;2022-10-31T06:13:45;13.50;71.60
8103;DHT22;4094;49.948;11.574;2022-10-31T06:16:23;13.50;71.60
8103;DHT22;4094;49.948;11.574;2022-10-31T06:18:55;13.50;71.20
8103;DHT22;4094;49.948;11.574;2022-10-31T06:21:24;13.50;71.80
8103;DHT22;4094;49.948;11.574;2022-10-31T06:23:53;13.50;71.00
8103;DHT22;4094;49.948;11.574;2022-10-31T06:26:47;13.50;70.80
8103;DHT22;4094;49.948;11.574;2022-10-31T06:29:16;13.60;70.50
8103;DHT22;4094;49.948;11.574;2022-10-31T06:31:57;13.60;70.00
8103;DHT22;4094;49.948;11.574;2022-10-31T06:34:28;13.60;69.80
8103;DHT22;4094;49.948;11.574;2022-10-31T06:36:57;13.50;69.70
8103;DHT22;4094;49.948;11.574;2022-10-31T06:39:28;13.50;69.60
8103;DHT22;4094;49.948;11.574;2022-10-31T06:41:59;13.50;69.50
8103;DHT22;4094;49.948;11.574;2022-10-31T06:44:30;13.50;69.40
8103;DHT22;4094;49.948;11.574;2022-10-31T06:46:59;13.40;69.40
8103;DHT22;4094;49.948;11.574;2022-10-31T06:49:37;13.40;69.40
8103;DHT22;4094;49.948;11.574;2022-10-31T06:52:13;13.40;69.50
8103;DHT22;4094;49.948;11.574;2022-10-31T06:54:41;13.40;69.60
8103;DHT22;4094;49.948;11.574;2022-10-31T06:57:12;13.40;69.70
8103;DHT22;4094;49.948;11.574;2022-10-31T06:59:41;13.40;70.00
8103;DHT22;4094;49.948;11.574;2022-10-31T07:02:25;13.40;70.40
8103;DHT22;4094;49.948;11.574;2022-10-31T07:04:54;13.40;70.70
8103;DHT22;4094;49.948;11.574;2022-10-31T07:07:24;13.40;70.90
8103;DHT22;4094;49.948;11.574;2022-10-31T07:09:53;13.40;71.10
8103;DHT22;4094;49.948;11.574;2022-10-31T07:12:39;13.50;71.30
8103;DHT22;4094;49.948;11.574;2022-10-31T07:15:09;13.50;71.50
8103;DHT22;4094;49.948;11.574;2022-10-31T07:17:39;13.60;71.60
8103;DHT22;4094;49.948;11.574;2022-10-31T07:20:09;13.60;71.80
8103;DHT22;4094;49.948;11.574;2022-10-31T07:22:38;13.70;72.00
8103;DHT22;4094;49.948;11.574;2022-10-31T07:25:09;13.80;71.90
8103;DHT22;4094;49.948;11.574;2022-10-31T07:27:59;13.80;72.00
8103;DHT22;4094;49.948;11.574;2022-10-31T07:30:29;13.90;72.00
8103;DHT22;4094;49.948;11.574;2022-10-31T07:32:58;14.00;72.00
8103;DHT22;4094;49.948;11.574;2022-10-31T07:35:47;14.10;71.60
8103;DHT22;4094;49.948;11.574;2022-10-31T07:38:20;14.20;71.20
8103;DHT22;4094;49.948;11.574;2022-10-31T07:40:51;14.30;70.70
8103;DHT22;4094;49.948;11.574;2022-10-31T07:43:22;14.40;70.50
8103;DHT22;4094;49.948;11.574;2022-10-31T07:46:12;14.50;70.10
8103;DHT22;4094;49.948;11.574;2022-10-31T07:48:59;14.50;69.90
8103;DHT22;4094;49.948;11.574;2022-10-31T07:51:47;14.60;70.10
8103;DHT22;4094;49.948;11.574;2022-10-31T07:54:34;14.70;70.10
8103;DHT22;4094;49.948;11.574;2022-10-31T07:57:03;14.90;69.70
8103;DHT22;4094;49.948;11.574;2022-10-31T07:59:33;15.00;69.10
8103;DHT22;4094;49.948;11.574;2022-10-31T08:02:02;15.00;68.90
8103;DHT22;4094;49.948;11.574;2022-10-31T08:04:31;15.10;68.70
8103;DHT22;4094;49.948;11.574;2022-10-31T08:07:19;15.20;68.60
8103;DHT22;4094;49.948;11.574;2022-10-31T08:09:56;15.20;68.50
8103;DHT22;4094;49.948;11.574;2022-10-31T08:12:29;15.30;68.50
8103;DHT22;4094;49.948;11.574;2022-10-31T08:15:00;15.30;68.80
8103;DHT22;4094;49.948;11.574;2022-10-31T08:17:29;15.20;70.10
8103;DHT22;4094;49.948;11.574;2022-10-31T08:20:01;15.30;70.30
8103;DHT22;4094;49.948;11.574;2022-10-31T08:22:36;15.30;70.70
8103;DHT22;4094;49.948;11.574;2022-10-31T08:25:11;15.30;70.70
8103;DHT22;4094;49.948;11.574;2022-10-31T08:27:40;15.40;71.00
8103;DHT22;4094;49.948;11.574;2022-10-31T08:30:18;15.40;70.90
8103;DHT22;4094;49.948;11.574;2022-10-31T08:33:09;15.50;71.10
8103;DHT22;4094;49.948;11.574;2022-10-31T08:35:58;15.60;71.30
8103;DHT22;4094;49.948;11.574;2022-10-31T08:38:48;15.80;71.60
8103;DHT22;4094;49.948;11.574;2022-10-31T08:41:18;16.00;71.60
8103;DHT22;4094;49.948;11.574;2022-10-31T08:43:47;16.20;71.40
8103;DHT22;4094;49.948;11.574;2022-10-31T08:46:17;16.40;71.00
8103;DHT22;4094;49.948;11.574;2022-10-31T08:48:47;16.60;71.30
8103;DHT22;4094;49.948;11.574;2022-10-31T08:51:18;16.80;71.70
8103;DHT22;4094;49.948;11.574;2022-10-31T08:53:51;17.00;71.00
8103;DHT22;4094;49.948;11.574;2022-10-31T08:56:54;17.30;70.00
8103;DHT22;4094;49.948;11.574;2022-10-31T08:59:40;17.70;70.50
8103;DHT22;4094;49.948;11.574;2022-10-31T09:02:43;18.00;69.60
8103;DHT22;4094;49.948;11.574;2022-10-31T09:05:14;18.40;68.80
8103;DHT22;4094;49.948;11.574;2022-10-31T09:07:43;18.80;68.50
8103;DHT22;4094;49.948;11.574;2022-10-31T09:10:13;19.00;66.80
8103;DHT22;4094;49.948;11.574;2022-10-31T09:12:42;19.40;67.20
8103;DHT22;4094;49.948;11.574;2022-10-31T09:15:39;19.70;66.20
8103;DHT22;4094;49.948;11.574;2022-10-31T09:18:23;20.10;65.10
8103;DHT22;4094;49.948;11.574;2022-10-31T09:20:58;20.50;64.40
8103;DHT22;4094;49.948;11.574;2022-10-31T09:23:30;20.80;63.60
8103;DHT22;4094;49.948;11.574;2022-10-31T09:26:01;21.10;63.10
8103;DHT22;4094;49.948;11.574;2022-10-31T09:29:02;21.50;61.40
8103;DHT22;4094;49.948;11.574;2022-10-31T09:31:32;21.80;60.60
8103;DHT22;4094;49.948;11.574;2022-10-31T09:34:07;22.00;59.70
8103;DHT22;4094;49.948;11.574;2022-10-31T09:36:36;22.20;59.40
8103;DHT22;4094;49.948;11.574;2022-10-31T09:39:09;22.40;59.20
8103;DHT22;4094;49.948;11.574;2022-10-31T09:44:50;22.70;57.60
8103;DHT22;4094;49.948;11.574;2022-10-31T09:47:41;22.90;57.60
8103;DHT22;4094;49.948;11.574;2022-10-31T09:50:38;23.10;57.50
8103;DHT22;4094;49.948;11.574;2022-10-31T09:53:42;23.30;57.00
8103;DHT22;4094;49.948;11.574;2022-10-31T09:56:18;23.50;56.90
8103;DHT22;4094;49.948;11.574;2022-10-31T09:58:51;23.70;56.50
8103;DHT22;4094;49.948;11.574;2022-10-31T10:01:39;23.80;55.80
8103;DHT22;4094;49.948;11.574;2022-10-31T10:04:30;23.90;55.50
8103;DHT22;4094;49.948;11.574;2022-10-31T10:07:25;23.90;55.30
8103;DHT22;4094;49.948;11.574;2022-10-31T10:10:22;24.00;54.70
8103;DHT22;4094;49.948;11.574;2022-10-31T10:13:13;23.90;54.60
8103;DHT22;4094;49.948;11.574;2022-10-31T10:15:57;23.90;54.70
8103;DHT22;4094;49.948;11.574;2022-10-31T10:18:37;24.00;54.60
8103;DHT22;4094;49.948;11.574;2022-10-31T10:21:19;24.00;53.90
8103;DHT22;4094;49.948;11.574;2022-10-31T10:24:05;24.00;54.70
8103;DHT22;4094;49.948;11.574;2022-10-31T10:26:41;24.10;54.70
8103;DHT22;4094;49.948;11.574;2022-10-31T10:29:23;24.20;54.70
8103;DHT22;4094;49.948;11.574;2022-10-31T10:31:58;24.40;54.70
8103;DHT22;4094;49.948;11.574;2022-10-31T10:34:33;24.50;54.10
8103;DHT22;4094;49.948;11.574;2022-10-31T10:37:05;24.60;54.10
8103;DHT22;4094;49.948;11.574;2022-10-31T10:39:43;24.60;53.70
8103;DHT22;4094;49.948;11.574;2022-10-31T10:42:14;24.80;53.50
8103;DHT22;4094;49.948;11.574;2022-10-31T10:45:06;24.90;53.80
8103;DHT22;4094;49.948;11.574;2022-10-31T10:48:05;25.20;53.90
8103;DHT22;4094;49.948;11.574;2022-10-31T10:50:39;25.70;54.00
8103;DHT22;4094;49.948;11.574;2022-10-31T10:53:21;26.10;53.30
8103;DHT22;4094;49.948;11.574;2022-10-31T10:56:10;26.60;52.30
8103;DHT22;4094;49.948;11.574;2022-10-31T10:58:40;27.20;52.30
8103;DHT22;4094;49.948;11.574;2022-10-31T11:01:12;27.70;51.00
8103;DHT22;4094;49.948;11.574;2022-10-31T11:03:47;28.10;49.80
8103;DHT22;4094;49.948;11.574;2022-10-31T11:06:17;28.50;49.60
8103;DHT22;4094;49.948;11.574;2022-10-31T11:08:51;28.90;48.30
8103;DHT22;4094;49.948;11.574;2022-10-31T11:11:27;29.20;48.10
8103;DHT22;4094;49.948;11.574;2022-10-31T11:14:02;29.50;47.60
8103;DHT22;4094;49.948;11.574;2022-10-31T11:16:34;29.70;46.70
8103;DHT22;4094;49.948;11.574;2022-10-31T11:19:13;29.90;46.10
8103;DHT22;4094;49.948;11.574;2022-10-31T11:21:45;30.20;45.80
8103;DHT22;4094;49.948;11.574;2022-10-31T11:24:23;30.30;45.80
8103;DHT22;4094;49.948;11.574;2022-10-31T11:27:14;30.40;45.30
8103;DHT22;4094;49.948;11.574;2022-10-31T11:29:43;30.50;45.50
8103;DHT22;4094;49.948;11.574;2022-10-31T11:32:19;30.60;45.00
8103;DHT22;4094;49.948;11.574;2022-10-31T11:34:51;30.70;44.40
8103;DHT22;4094;49.948;11.574;2022-10-31T11:37:23;30.80;44.40
8103;DHT22;4094;49.948;11.574;2022-10-31T11:39:55;30.80;44.30
8103;DHT22;4094;49.948;11.574;2022-10-31T11:42:28;30.70;43.80
8103;DHT22;4094;49.948;11.574;2022-10-31T11:44:58;30.70;43.80
8103;DHT22;4094;49.948;11.574;2022-10-31T11:47:29;30.60;43.40
8103;DHT22;4094;49.948;11.574;2022-10-31T11:50:08;30.50;43.70
8103;DHT22;4094;49.948;11.574;2022-10-31T11:52:40;30.40;43.40
8103;DHT22;4094;49.948;11.574;2022-10-31T11:55:25;30.20;43.20
8103;DHT22;4094;49.948;11.574;2022-10-31T11:57:59;30.10;43.90
8103;DHT22;4094;49.948;11.574;2022-10-31T12:00:32;29.90;44.30
8103;DHT22;4094;49.948;11.574;2022-10-31T12:03:11;29.80;44.10
8103;DHT22;4094;49.948;11.574;2022-10-31T12:05:41;29.60;44.70
8103;DHT22;4094;49.948;11.574;2022-10-31T12:08:13;29.40;44.60
8103;DHT22;4094;49.948;11.574;2022-10-31T12:10:49;29.20;44.50
8103;DHT22;4094;49.948;11.574;2022-10-31T12:13:33;29.00;44.70
8103;DHT22;4094;49.948;11.574;2022-10-31T12:16:08;28.70;44.80
8103;DHT22;4094;49.948;11.574;2022-10-31T12:18:57;28.40;45.00
8103;DHT22;4094;49.948;11.574;2022-10-31T12:21:47;28.10;45.60
8103;DHT22;4094;49.948;11.574;2022-10-31T12:24:27;27.70;45.70
8103;DHT22;4094;49.948;11.574;2022-10-31T12:27:07;27.40;46.30
8103;DHT22;4094;49.948;11.574;2022-10-31T12:29:49;27.00;47.00
8103;DHT22;4094;49.948;11.574;2022-10-31T12:32:29;26.80;47.40
8103;DHT22;4094;49.948;11.574;2022-10-31T12:35:22;26.40;47.90
8103;DHT22;4094;49.948;11.574;2022-10-31T12:38:07;26.20;47.80
8103;DHT22;4094;49.948;11.574;2022-10-31T12:40:54;26.00;48.80
8103;DHT22;4094;49.948;11.574;2022-10-31T12:43:37;25.70;48.80
8103;DHT22;4094;49.948;11.574;2022-10-31T12:46:16;25.50;49.20
8103;DHT22;4094;49.948;11.574;2022-10-31T12:49:12;25.40;49.00
8103;DHT22;4094;49.948;11.574;2022-10-31T12:51:54;25.20;49.40
8103;DHT22;4094;49.948;11.574;2022-10-31T12:54:46;25.00;49.70
8103;DHT22;4094;49.948;11.574;2022-10-31T12:57:23;24.80;50.20
8103;DHT22;4094;49.948;11.574;2022-10-31T12:59:59;24.70;50.90
8103;DHT22;4094;49.948;11.574;2022-10-31T13:02:35;24.60;50.90
8103;DHT22;4094;49.948;11.574;2022-10-31T13:05:13;24.50;51.30
8103;DHT22;4094;49.948;11.574;2022-10-31T13:07:49;24.40;51.30
8103;DHT22;4094;49.948;11.574;2022-10-31T13:10:24;24.30;51.40
8103;DHT22;4094;49.948;11.574;2022-10-31T13:12:58;24.20;51.70
8103;DHT22;4094;49.948;11.574;2022-10-31T13:15:32;24.10;51.90
8103;DHT22;4094;49.948;11.574;2022-10-31T13:18:06;24.00;51.80
8103;DHT22;4094;49.948;11.574;2022-10-31T13:20:41;24.00;52.30
8103;DHT22;4094;49.948;11.574;2022-10-31T13:23:16;23.90;52.20
8103;DHT22;4094;49.948;11.574;2022-10-31T13:26:11;23.90;52.60
8103;DHT22;4094;49.948;11.574;2022-10-31T13:28:44;23.80;52.90
8103;DHT22;4094;49.948;11.574;2022-10-31T13:31:14;23.70;53.10
8103;DHT22;4094;49.948;11.574;2022-10-31T13:33:49;23.60;53.00
8103;DHT22;4094;49.948;11.574;2022-10-31T13:36:27;23.60;53.40
8103;DHT22;4094;49.948;11.574;2022-10-31T13:39:01;23.50;53.70
8103;DHT22;4094;49.948;11.574;2022-10-31T13:41:42;23.50;53.90
8103;DHT22;4094;49.948;11.574;2022-10-31T13:44:14;23.40;54.30
8103;DHT22;4094;49.948;11.574;2022-10-31T13:46:44;23.40;54.30
8103;DHT22;4094;49.948;11.574;2022-10-31T13:49:36;23.30;54.70
8103;DHT22;4094;49.948;11.574;2022-10-31T13:52:13;23.30;55.00
8103;DHT22;4094;49.948;11.574;2022-10-31T13:54:43;23.30;55.20
8103;DHT22;4094;49.948;11.574;2022-10-31T13:57:16;23.20;55.30
8103;DHT22;4094;49.948;11.574;2022-10-31T13:59:51;23.20;55.50
8103;DHT22;4094;49.948;11.574;2022-10-31T14:02:26;23.20;55.70
8103;DHT22;4094;49.948;11.574;2022-10-31T14:04:59;23.10;55.80
8103;DHT22;4094;49.948;11.574;2022-10-31T14:07:30;23.10;56.20
8103;DHT22;4094;49.948;11.574;2022-10-31T14:10:03;23.10;56.10
8103;DHT22;4094;49.948;11.574;2022-10-31T14:12:35;23.00;56.30
8103;DHT22;4094;49.948;11.574;2022-10-31T14:15:14;23.00;56.40
8103;DHT22;4094;49.948;11.574;2022-10-31T14:17:47;22.90;56.80
8103;DHT22;4094;49.948;11.574;2022-10-31T14:20:32;22.90;56.60
8103;DHT22;4094;49.948;11.574;2022-10-31T14:23:32;22.90;56.90
8103;DHT22;4094;49.948;11.574;2022-10-31T14:26:31;22.80;56.90
8103;DHT22;4094;49.948;11.574;2022-10-31T14:29:19;22.80;56.90
8103;DHT22;4094;49.948;11.574;2022-10-31T14:31:53;22.70;57.00
8103;DHT22;4094;49.948;11.574;2022-10-31T14:34:25;22.70;57.20
8103;DHT22;4094;49.948;11.574;2022-10-31T14:40:14;22.60;57.50
8103;DHT22;4094;49.948;11.574;2022-10-31T14:43:13;22.50;57.60
8103;DHT22;4094;49.948;11.574;2022-10-31T14:45:52;22.40;57.60
8103;DHT22;4094;49.948;11.574;2022-10-31T14:48:37;22.40;58.00
8103;DHT22;4094;49.948;11.574;2022-10-31T14:51:12;22.30;57.90
8103;DHT22;4094;49.948;11.574;2022-10-31T14:53:45;22.30;57.90
8103;DHT22;4094;49.948;11.574;2022-10-31T14:56:21;22.20;58.00
8103;DHT22;4094;49.948;11.574;2022-10-31T14:58:53;22.10;58.10
8103;DHT22;4094;49.948;11.574;2022-10-31T15:01:25;22.10;58.10
8103;DHT22;4094;49.948;11.574;2022-10-31T15:04:07;22.00;58.20
8103;DHT22;4094;49.948;11.574;2022-10-31T15:06:54;22.00;58.40
8103;DHT22;4094;49.948;11.574;2022-10-31T15:09:27;21.90;58.50
8103;DHT22;4094;49.948;11.574;2022-10-31T15:11:59;21.90;58.70
8103;DHT22;4094;49.948;11.574;2022-10-31T15:14:30;21.80;58.80
8103;DHT22;4094;49.948;11.574;2022-10-31T15:17:02;21.80;59.00
8103;DHT22;4094;49.948;11.574;2022-10-31T15:19:33;21.70;59.10
8103;DHT22;4094;49.948;11.574;2022-10-31T15:22:04;21.70;59.30
8103;DHT22;4094;49.948;11.574;2022-10-31T15:24:35;21.60;59.30
8103;DHT22;4094;49.948;11.574;2022-10-31T15:27:11;21.50;59.50
8103;DHT22;4094;49.948;11.574;2022-10-31T15:29:48;21.50;59.70
8103;DHT22;4094;49.948;11.574;2022-10-31T15:32:20;21.40;59.80
8103;DHT22;4094;49.948;11.574;2022-10-31T15:34:51;21.40;59.80
8103;DHT22;4094;49.948;11.574;2022-10-31T15:37:22;21.30;60.00
8103;DHT22;4094;49.948;11.574;2022-10-31T15:39:52;21.30;60.20
8103;DHT22;4094;49.948;11.574;2022-10-31T15:42:26;21.20;60.20
8103;DHT22;4094;49.948;11.574;2022-10-31T15:45:12;21.20;60.40
8103;DHT22;4094;49.948;11.574;2022-10-31T15:47:48;21.10;60.60
8103;DHT22;4094;49.948;11.574;2022-10-31T15:50:23;21.10;60.70
8103;DHT22;4094;49.948;11.574;2022-10-31T15:52:54;21.00;61.00
8103;DHT22;4094;49.948;11.574;2022-10-31T15:55:25;20.90;61.10
8103;DHT22;4094;49.948;11.574;2022-10-31T15:57:59;20.90;61.50
8103;DHT22;4094;49.948;11.574;2022-10-31T16:00:32;20.90;61.80
8103;DHT22;4094;49.948;11.574;2022-10-31T16:03:04;20.80;61.90
8103;DHT22;4094;49.948;11.574;2022-10-31T16:05:38;20.70;62.00
8103;DHT22;4094;49.948;11.574;2022-10-31T16:08:33;20.70;63.10
8103;DHT22;4094;49.948;11.574;2022-10-31T16:11:17;20.60;62.50
8103;DHT22;4094;49.948;11.574;2022-10-31T16:13:59;20.50;62.50
8103;DHT22;4094;49.948;11.574;2022-10-31T16:16:29;20.50;62.80
8103;DHT22;4094;49.948;11.574;2022-10-31T16:19:05;20.50;62.90
8103;DHT22;4094;49.948;11.574;2022-10-31T16:21:36;20.40;63.20
8103;DHT22;4094;49.948;11.574;2022-10-31T16:24:16;20.40;63.40
8103;DHT22;4094;49.948;11.574;2022-10-31T16:26:51;20.30;63.60
8103;DHT22;4094;49.948;11.574;2022-10-31T16:29:27;20.30;63.80
8103;DHT22;4094;49.948;11.574;2022-10-31T16:31:56;20.20;63.80
8103;DHT22;4094;49.948;11.574;2022-10-31T16:34:26;20.20;63.60
8103;DHT22;4094;49.948;11.574;2022-10-31T16:36:54;20.20;64.00
8103;DHT22;4094;49.948;11.574;2022-10-31T16:39:23;20.10;64.10
8103;DHT22;4094;49.948;11.574;2022-10-31T16:41:55;20.00;64.20
8103;DHT22;4094;49.948;11.574;2022-10-31T16:44:26;20.00;64.40
8103;DHT22;4094;49.948;11.574;2022-10-31T16:47:08;20.00;64.50
8103;DHT22;4094;49.948;11.574;2022-10-31T16:49:38;19.90;64.90
8103;DHT22;4094;49.948;11.574;2022-10-31T16:52:07;19.90;64.70
8103;DHT22;4094;49.948;11.574;2022-10-31T16:54:36;19.80;64.90